Time;durP1;ratioP1;P1;durP2;ratioP2;P2;SDS_P1;SDS_P2;PMS_P1;PMS_P2;Temp;Humidity;BMP_temperature;BMP_pressure;BME280_temperature;BME280_humidity;BME280_pressure;Samples;Min_cycle;Max_cycle;Signal;HPM_P1;HPM_P2
2021/05/25 00:01:02;;;;;;;1.77;1.47;;;11.60;99.90;;;;;;5052961;28;20246;-72
2021/05/25 00:03:27;;;;;;;1.93;1.40;;;11.60;99.90;;;;;;5055875;28;20249;-72
2021/05/25 00:05:53;;;;;;;1.63;1.43;;;11.60;99.90;;;;;;5057843;28;20194;-72
2021/05/25 00:08:19;;;;;;;1.30;1.20;;;11.60;99.90;;;;;;5065163;28;20209;-73
2021/05/25 00:10:44;;;;;;;1.23;1.13;;;11.60;99.90;;;;;;5067149;28;20165;-72
2021/05/25 00:13:10;;;;;;;2.70;1.03;;;11.50;99.90;;;;;;5065681;28;20488;-72
2021/05/25 00:15:36;;;;;;;1.40;1.20;;;11.50;99.90;;;;;;5067129;28;20194;-72
2021/05/25 00:18:04;;;;;;;1.17;1.00;;;11.50;99.90;;;;;;5072487;28;20185;-71
2021/05/25 00:20:30;;;;;;;2.07;1.70;;;11.40;99.90;;;;;;5059691;28;20452;-72
2021/05/25 00:22:56;;;;;;;3.83;1.10;;;11.40;99.90;;;;;;5070819;28;20913;-72
2021/05/25 00:25:22;;;;;;;2.33;1.20;;;11.40;99.90;;;;;;5066743;28;20448;-72
2021/05/25 00:27:49;;;;;;;1.23;1.13;;;11.30;99.90;;;;;;5056432;28;20170;-72
2021/05/25 00:30:17;;;;;;;1.07;1.00;;;11.30;99.90;;;;;;5056738;28;20428;-72
2021/05/25 00:32:43;;;;;;;1.53;1.37;;;11.30;99.90;;;;;;5056906;28;20409;-72
2021/05/25 00:35:10;;;;;;;1.20;1.10;;;11.40;99.90;;;;;;5057486;28;20532;-72
2021/05/25 00:37:36;;;;;;;3.50;1.10;;;11.50;99.90;;;;;;5057805;28;20399;-72
2021/05/25 00:40:03;;;;;;;1.30;1.20;;;11.40;99.90;;;;;;5056544;28;20601;-72
2021/05/25 00:42:29;;;;;;;1.37;1.17;;;11.40;99.90;;;;;;5056176;28;20170;-73
2021/05/25 00:44:54;;;;;;;1.08;0.98;;;11.40;99.90;;;;;;5056624;28;20414;-72
2021/05/25 00:47:31;;;;;;;1.03;0.93;;;11.50;99.90;;;;;;5056288;28;20170;-72
2021/05/25 00:50:09;;;;;;;1.20;1.10;;;11.50;99.90;;;;;;5056090;28;20174;-72
2021/05/25 00:52:40;;;;;;;1.80;1.20;;;11.50;99.90;;;;;;5055899;28;20518;-72
2021/05/25 00:55:07;;;;;;;1.77;1.27;;;11.40;99.90;;;;;;5056356;28;20429;-72
2021/05/25 00:57:33;;;;;;;1.07;1.07;;;11.40;99.90;;;;;;5055812;28;20492;-73
2021/05/25 00:59:59;;;;;;;4.17;0.90;;;11.40;99.90;;;;;;5056443;28;20432;-72
2021/05/25 01:02:25;;;;;;;2.10;1.03;;;11.40;99.90;;;;;;5055256;28;20447;-72
2021/05/25 01:04:50;;;;;;;1.20;1.10;;;11.40;99.90;;;;;;5055463;28;20425;-73
2021/05/25 01:07:16;;;;;;;0.93;0.83;;;11.50;99.90;;;;;;5054882;28;20273;-73
2021/05/25 01:09:41;;;;;;;0.73;0.73;;;11.50;99.90;;;;;;5055972;28;20166;-73
2021/05/25 01:12:09;;;;;;;1.23;1.00;;;11.40;99.90;;;;;;5055265;28;20185;-73
2021/05/25 01:14:41;;;;;;;1.73;1.00;;;11.30;99.90;;;;;;5054693;28;20186;-73
2021/05/25 01:17:07;;;;;;;1.20;1.10;;;11.30;99.90;;;;;;5055389;28;20531;-72
2021/05/25 01:19:33;;;;;;;2.00;1.90;;;11.20;99.90;;;;;;5055305;28;20608;-73
2021/05/25 01:21:59;;;;;;;0.80;0.80;;;11.20;99.90;;;;;;5055037;28;20482;-73
2021/05/25 01:24:32;;;;;;;1.13;1.07;;;11.20;99.90;;;;;;5055244;28;20193;-73
2021/05/25 01:27:06;;;;;;;1.30;1.07;;;11.20;99.90;;;;;;5055446;28;20912;-73
2021/05/25 01:29:33;;;;;;;0.97;0.97;;;11.10;99.90;;;;;;5055210;28;20386;-73
2021/05/25 01:31:59;;;;;;;1.00;0.90;;;11.10;99.90;;;;;;5054568;28;20439;-73
2021/05/25 01:34:24;;;;;;;0.80;0.80;;;11.10;99.90;;;;;;5054737;28;20769;-73
2021/05/25 01:36:50;;;;;;;1.33;0.90;;;11.00;99.90;;;;;;5055450;28;20522;-72
2021/05/25 01:39:16;;;;;;;1.63;0.90;;;11.00;99.90;;;;;;5054315;28;20190;-73
2021/05/25 01:41:42;;;;;;;1.10;1.00;;;11.00;99.90;;;;;;5054684;28;20201;-72
2021/05/25 01:44:08;;;;;;;1.10;1.00;;;11.10;99.90;;;;;;5054293;28;20870;-71
2021/05/25 01:46:34;;;;;;;3.93;0.90;;;11.10;99.90;;;;;;5054548;28;20433;-70
2021/05/25 01:49:00;;;;;;;0.80;0.80;;;11.10;99.90;;;;;;5054225;28;20956;-72
2021/05/25 01:51:25;;;;;;;0.80;0.73;;;11.20;99.90;;;;;;5054632;28;20181;-72
2021/05/25 01:53:51;;;;;;;1.10;0.90;;;11.20;99.90;;;;;;5052902;28;20182;-72
2021/05/25 01:56:17;;;;;;;2.50;1.17;;;11.10;99.90;;;;;;5054730;28;20210;-72
2021/05/25 01:58:43;;;;;;;1.40;1.30;;;11.10;99.90;;;;;;5054203;28;20540;-72
2021/05/25 02:01:11;;;;;;;1.10;0.87;;;11.10;99.90;;;;;;5053975;28;20170;-72
2021/05/25 02:03:38;;;;;;;2.30;0.90;;;11.10;99.90;;;;;;5053962;28;20769;-72
2021/05/25 02:06:08;;;;;;;3.50;1.00;;;11.10;99.90;;;;;;5054674;28;20429;-71
2021/05/25 02:08:34;;;;;;;0.83;0.73;;;11.10;99.90;;;;;;5054264;28;20425;-72
2021/05/25 02:11:02;;;;;;;1.60;1.10;;;11.10;99.90;;;;;;5054811;28;20742;-71
2021/05/25 02:13:30;;;;;;;1.20;1.13;;;11.10;99.90;;;;;;5057256;28;20416;-70
2021/05/25 02:15:59;;;;;;;1.10;0.87;;;11.10;99.90;;;;;;5060900;28;20424;-72
2021/05/25 02:18:30;;;;;;;2.80;0.80;;;11.10;99.90;;;;;;5054092;28;20428;-72
2021/05/25 02:20:58;;;;;;;1.27;0.90;;;11.00;99.90;;;;;;5054971;28;20505;-71
2021/05/25 02:23:24;;;;;;;1.00;0.90;;;10.90;99.90;;;;;;5053863;28;20416;-71
2021/05/25 02:25:49;;;;;;;0.80;0.80;;;10.90;99.90;;;;;;5053226;28;20454;-72
2021/05/25 02:28:16;;;;;;;0.80;0.80;;;11.00;99.90;;;;;;5053844;28;20474;-72
2021/05/25 02:30:42;;;;;;;1.00;0.90;;;11.00;99.90;;;;;;5054387;28;20213;-72
2021/05/25 02:33:10;;;;;;;0.97;0.80;;;11.10;99.90;;;;;;5053713;28;20420;-71
2021/05/25 02:35:37;;;;;;;1.20;0.80;;;11.00;99.90;;;;;;5053009;28;20874;-71
2021/05/25 02:38:04;;;;;;;1.50;1.40;;;10.90;99.90;;;;;;5056845;28;20439;-70
2021/05/25 02:40:31;;;;;;;1.27;0.97;;;10.90;99.90;;;;;;5060894;28;20472;-70
2021/05/25 02:42:58;;;;;;;1.10;1.00;;;11.00;99.90;;;;;;5056607;28;20411;-72
2021/05/25 02:45:23;;;;;;;1.00;0.90;;;11.00;99.90;;;;;;5056981;28;20205;-71
2021/05/25 02:47:49;;;;;;;1.00;0.90;;;11.00;99.90;;;;;;5055192;28;20413;-72
2021/05/25 02:50:15;;;;;;;1.40;0.90;;;11.00;99.90;;;;;;5053675;28;20170;-72
2021/05/25 02:52:43;;;;;;;1.57;0.70;;;11.00;99.90;;;;;;5053766;28;20177;-71
2021/05/25 02:55:15;;;;;;;1.73;0.90;;;10.90;99.90;;;;;;5055040;28;20976;-71
2021/05/25 02:57:41;;;;;;;3.33;0.90;;;10.80;99.90;;;;;;5055532;28;20403;-71
2021/05/25 03:00:28;;;;;;;1.40;1.30;;;10.80;99.90;;;;;;5053015;28;20514;-72
2021/05/25 03:02:54;;;;;;;0.80;0.80;;;10.90;99.90;;;;;;5053159;28;20462;-71
2021/05/25 03:05:25;;;;;;;1.50;0.83;;;10.80;99.90;;;;;;5053023;28;20976;-72
2021/05/25 03:07:52;;;;;;;1.23;0.90;;;10.80;99.90;;;;;;5051719;28;20401;-72
2021/05/25 03:10:20;;;;;;;1.87;0.80;;;10.70;99.90;;;;;;5052990;28;20423;-72
2021/05/25 03:12:46;;;;;;;0.90;0.80;;;10.80;99.90;;;;;;5053460;28;20410;-72
2021/05/25 03:15:17;;;;;;;1.97;1.30;;;10.70;99.90;;;;;;5052809;28;20458;-72
2021/05/25 03:17:43;;;;;;;1.93;1.10;;;10.60;99.90;;;;;;5053097;28;20583;-71
2021/05/25 03:20:11;;;;;;;1.70;1.10;;;10.70;99.90;;;;;;5053177;28;20448;-71
2021/05/25 03:22:37;;;;;;;0.90;0.73;;;10.70;99.90;;;;;;5052624;28;20421;-71
2021/05/25 03:25:05;;;;;;;1.30;1.13;;;10.70;99.90;;;;;;5053093;28;20516;-71
2021/05/25 03:27:30;;;;;;;3.23;0.90;;;10.60;99.90;;;;;;5051826;28;20413;-71
2021/05/25 03:29:56;;;;;;;0.90;0.80;;;10.70;99.90;;;;;;5053610;28;20408;-71
2021/05/25 03:32:22;;;;;;;2.50;1.20;;;10.70;99.90;;;;;;5052778;28;20231;-73
2021/05/25 03:34:47;;;;;;;1.13;1.00;;;10.70;99.90;;;;;;5052743;28;20194;-72
2021/05/25 03:37:13;;;;;;;1.60;1.00;;;10.60;99.90;;;;;;5055409;28;20565;-72
2021/05/25 03:39:38;;;;;;;2.20;1.03;;;10.70;99.90;;;;;;5063314;28;20194;-71
2021/05/25 03:42:05;;;;;;;1.33;1.10;;;10.80;99.90;;;;;;5056959;28;20598;-72
2021/05/25 03:44:30;;;;;;;1.70;1.33;;;10.70;99.90;;;;;;5058836;28;20236;-71
2021/05/25 03:46:56;;;;;;;1.03;0.87;;;10.70;99.90;;;;;;5058905;28;20420;-72
2021/05/25 03:49:21;;;;;;;1.00;1.00;;;10.70;99.90;;;;;;5058746;28;20623;-72
2021/05/25 03:51:47;;;;;;;1.23;1.13;;;10.60;99.90;;;;;;5059948;28;20185;-71
2021/05/25 03:54:20;;;;;;;1.20;1.10;;;10.70;99.90;;;;;;5059936;28;20244;-71
2021/05/25 03:56:50;;;;;;;1.10;1.10;;;10.70;99.90;;;;;;5060279;28;20170;-72
2021/05/25 03:59:16;;;;;;;1.77;1.07;;;10.70;99.90;;;;;;5058143;28;20957;-72
2021/05/25 04:01:42;;;;;;;1.57;1.00;;;10.70;99.90;;;;;;5059311;28;20400;-73
2021/05/25 04:04:09;;;;;;;1.60;1.20;;;10.70;99.90;;;;;;5057905;28;20425;-73
2021/05/25 04:06:35;;;;;;;1.97;1.10;;;10.70;99.90;;;;;;5058381;28;20193;-72
2021/05/25 04:09:00;;;;;;;1.30;1.20;;;10.60;99.90;;;;;;5056504;28;20569;-73
2021/05/25 04:11:26;;;;;;;1.10;1.00;;;10.60;99.90;;;;;;5056745;28;20224;-72
2021/05/25 04:13:51;;;;;;;1.97;1.10;;;10.60;99.90;;;;;;5056116;28;20224;-73
2021/05/25 04:16:17;;;;;;;1.57;1.37;;;10.50;99.90;;;;;;5056119;28;20182;-72
2021/05/25 04:18:43;;;;;;;1.13;1.00;;;10.40;99.90;;;;;;5056184;28;20257;-72
2021/05/25 04:21:09;;;;;;;1.23;1.10;;;10.40;99.90;;;;;;5057102;28;20163;-71
2021/05/25 04:23:35;;;;;;;1.03;0.93;;;10.40;99.90;;;;;;5056651;28;20178;-72
2021/05/25 04:26:01;;;;;;;1.27;1.00;;;10.50;99.90;;;;;;5056233;28;20437;-72
2021/05/25 04:28:27;;;;;;;2.17;1.23;;;10.50;99.90;;;;;;5056231;28;20404;-72
2021/05/25 04:30:52;;;;;;;1.10;1.00;;;10.60;99.90;;;;;;5055849;28;20220;-72
2021/05/25 04:33:18;;;;;;;2.10;1.30;;;10.50;99.90;;;;;;5055900;28;20170;-72
2021/05/25 04:35:44;;;;;;;1.13;0.97;;;10.50;99.90;;;;;;5055827;28;20705;-72
2021/05/25 04:38:10;;;;;;;1.70;1.23;;;10.50;99.90;;;;;;5056129;28;20185;-72
2021/05/25 04:40:40;;;;;;;1.40;1.30;;;10.50;99.90;;;;;;5054436;28;20516;-72
2021/05/25 04:43:06;;;;;;;1.27;0.95;;;10.50;99.90;;;;;;5055716;28;20427;-72
2021/05/25 04:45:32;;;;;;;1.20;1.10;;;10.50;99.90;;;;;;5055303;28;20193;-72
2021/05/25 04:47:57;;;;;;;1.20;1.10;;;10.40;99.90;;;;;;5055505;28;20428;-72
2021/05/25 04:50:23;;;;;;;1.30;1.20;;;10.40;99.90;;;;;;5055426;28;20170;-72
2021/05/25 04:52:49;;;;;;;1.37;1.27;;;10.40;99.90;;;;;;5055383;28;20183;-72
2021/05/25 04:55:17;;;;;;;2.03;1.43;;;10.40;99.90;;;;;;5055655;28;20532;-72
2021/05/25 04:57:43;;;;;;;1.50;1.40;;;10.30;99.90;;;;;;5055445;28;20405;-72
2021/05/25 05:00:12;;;;;;;1.60;1.50;;;10.40;99.90;;;;;;5055794;28;20451;-72
2021/05/25 05:02:38;;;;;;;4.20;3.80;;;10.40;99.90;;;;;;5054890;28;20519;-72
2021/05/25 05:05:05;;;;;;;11.40;9.23;;;10.30;99.90;;;;;;5055497;28;20508;-72
2021/05/25 05:07:30;;;;;;;3.83;2.10;;;10.40;99.90;;;;;;5054062;28;20182;-71
2021/05/25 05:09:56;;;;;;;1.80;1.70;;;10.40;99.90;;;;;;5055468;28;20408;-72
2021/05/25 05:12:21;;;;;;;1.80;1.60;;;10.40;99.90;;;;;;5053638;28;20183;-73
2021/05/25 05:14:47;;;;;;;2.20;1.40;;;10.50;99.90;;;;;;5053045;28;20293;-72
2021/05/25 05:17:13;;;;;;;1.80;1.70;;;10.50;99.90;;;;;;5055275;28;20687;-73
2021/05/25 05:19:38;;;;;;;3.00;1.60;;;10.50;99.90;;;;;;5053733;28;20256;-72
2021/05/25 05:22:04;;;;;;;1.53;1.43;;;10.50;99.90;;;;;;5055511;28;20210;-72
2021/05/25 05:24:29;;;;;;;1.87;1.53;;;10.50;99.90;;;;;;5054676;28;20613;-72
2021/05/25 05:26:55;;;;;;;2.30;2.10;;;10.50;99.90;;;;;;5053829;28;20276;-72
2021/05/25 05:29:21;;;;;;;3.13;2.17;;;10.50;99.90;;;;;;5054202;28;20178;-72
2021/05/25 05:31:46;;;;;;;2.90;2.27;;;10.50;99.90;;;;;;5055120;28;20276;-71
2021/05/25 05:34:12;;;;;;;3.43;2.23;;;10.60;99.90;;;;;;5061147;28;20657;-71
2021/05/25 05:36:38;;;;;;;2.03;1.93;;;10.60;99.90;;;;;;5056358;28;20167;-73
2021/05/25 05:39:04;;;;;;;2.10;1.90;;;10.50;99.90;;;;;;5055195;28;20456;-72
2021/05/25 05:41:30;;;;;;;2.40;1.83;;;10.50;99.90;;;;;;5053377;28;20422;-72
2021/05/25 05:43:56;;;;;;;1.80;1.70;;;10.60;99.90;;;;;;5042764;28;20440;-72
2021/05/25 05:46:22;;;;;;;2.30;2.10;;;10.60;99.90;;;;;;5046465;28;20194;-72
2021/05/25 05:48:47;;;;;;;3.93;2.33;;;10.70;99.90;;;;;;5043572;28;20519;-72
2021/05/25 05:51:13;;;;;;;1.70;1.60;;;10.70;99.90;;;;;;5043478;28;20257;-74
2021/05/25 05:53:39;;;;;;;2.37;2.17;;;10.70;99.90;;;;;;5045854;28;20449;-72
2021/05/25 05:56:04;;;;;;;1.67;1.50;;;10.80;99.90;;;;;;5038515;28;20284;-73
2021/05/25 05:58:30;;;;;;;2.03;1.50;;;10.80;99.90;;;;;;5039062;28;20194;-71
2021/05/25 06:00:56;;;;;;;2.00;1.80;;;10.80;99.90;;;;;;5041906;28;20213;-72
2021/05/25 06:03:21;;;;;;;2.17;1.97;;;10.70;99.90;;;;;;5043051;28;20218;-72
2021/05/25 06:05:47;;;;;;;3.10;1.87;;;10.80;99.90;;;;;;5043842;28;20221;-71
2021/05/25 06:08:13;;;;;;;2.37;2.00;;;10.80;99.90;;;;;;5045452;28;20227;-71
2021/05/25 06:10:40;;;;;;;2.13;1.63;;;10.70;99.90;;;;;;5049505;28;20625;-72
2021/05/25 06:13:06;;;;;;;2.70;1.60;;;10.80;99.90;;;;;;5046776;28;20452;-71
2021/05/25 06:15:33;;;;;;;1.80;1.70;;;10.70;99.90;;;;;;5043168;28;20590;-71
2021/05/25 06:17:59;;;;;;;2.00;1.80;;;10.60;99.90;;;;;;5038865;28;20929;-71
2021/05/25 06:20:26;;;;;;;1.50;1.40;;;10.60;99.90;;;;;;5034204;28;20464;-72
2021/05/25 06:22:51;;;;;;;3.40;2.20;;;10.80;99.90;;;;;;5051165;28;20482;-72
2021/05/25 06:25:17;;;;;;;1.80;1.70;;;10.70;99.90;;;;;;5042872;28;20437;-72
2021/05/25 06:27:43;;;;;;;4.27;2.60;;;10.70;99.90;;;;;;5049130;28;20170;-72
2021/05/25 06:30:10;;;;;;;2.10;1.63;;;10.70;99.90;;;;;;5047822;28;20870;-72
2021/05/25 06:32:37;;;;;;;2.20;2.00;;;10.80;99.90;;;;;;5045241;28;20420;-72
2021/05/25 06:35:04;;;;;;;1.90;1.80;;;10.90;99.90;;;;;;5043287;28;20871;-73
2021/05/25 06:37:29;;;;;;;1.97;1.80;;;10.90;99.90;;;;;;5033882;28;20497;-73
2021/05/25 06:39:55;;;;;;;1.50;1.40;;;10.90;99.90;;;;;;5033507;28;20554;-72
2021/05/25 06:42:21;;;;;;;1.33;1.27;;;10.90;99.90;;;;;;5038557;28;20193;-71
2021/05/25 06:44:46;;;;;;;3.00;1.30;;;10.80;99.90;;;;;;5045905;28;20448;-72
2021/05/25 06:47:12;;;;;;;2.87;1.70;;;10.60;99.90;;;;;;5043411;28;20329;-73
2021/05/25 06:49:39;;;;;;;2.03;1.57;;;10.60;99.90;;;;;;5050450;28;20681;-72
2021/05/25 06:52:08;;;;;;;2.20;1.53;;;10.70;99.90;;;;;;5034611;28;20280;-73
2021/05/25 06:54:34;;;;;;;2.70;1.73;;;10.80;99.90;;;;;;5044211;28;20468;-72
2021/05/25 06:57:00;;;;;;;1.57;1.47;;;10.70;99.90;;;;;;5051648;28;20477;-72
2021/05/25 06:59:26;;;;;;;1.90;1.70;;;10.70;99.90;;;;;;5053188;28;20870;-72
2021/05/25 07:01:53;;;;;;;1.97;1.80;;;10.50;99.90;;;;;;5056101;28;20683;-72
2021/05/25 07:04:19;;;;;;;2.50;2.35;;;10.30;99.90;;;;;;5058434;28;20775;-72
2021/05/25 07:06:45;;;;;;;2.70;2.20;;;10.30;99.90;;;;;;5048318;28;20193;-73
2021/05/25 07:09:11;;;;;;;2.50;2.30;;;10.40;99.90;;;;;;5058111;28;20469;-72
2021/05/25 07:11:36;;;;;;;2.30;2.03;;;10.50;99.90;;;;;;5054289;28;20186;-72
2021/05/25 07:14:02;;;;;;;2.27;2.07;;;10.60;99.90;;;;;;5050890;28;20190;-72
2021/05/25 07:16:28;;;;;;;2.40;2.20;;;10.60;99.90;;;;;;5059147;28;20651;-72
2021/05/25 07:18:53;;;;;;;2.50;2.30;;;10.50;99.90;;;;;;5064381;28;20488;-72
2021/05/25 07:21:19;;;;;;;2.07;1.97;;;10.60;99.90;;;;;;5051535;28;20178;-72
2021/05/25 07:23:44;;;;;;;2.90;2.20;;;10.60;99.90;;;;;;5059851;28;20185;-72
2021/05/25 07:26:10;;;;;;;2.80;2.60;;;10.60;99.90;;;;;;5069386;28;20209;-72
2021/05/25 07:28:36;;;;;;;2.43;2.33;;;10.50;99.90;;;;;;5067879;28;20189;-72
2021/05/25 07:31:01;;;;;;;2.90;1.97;;;10.60;99.90;;;;;;5069160;28;20197;-72
2021/05/25 07:33:27;;;;;;;1.70;1.60;;;10.60;99.90;;;;;;5068771;28;20182;-73
2021/05/25 07:35:53;;;;;;;1.93;1.73;;;10.50;99.90;;;;;;5070566;28;20213;-72
2021/05/25 07:38:20;;;;;;;1.80;1.70;;;10.60;99.90;;;;;;5052843;28;20674;-72
2021/05/25 07:40:46;;;;;;;2.20;2.00;;;10.70;99.90;;;;;;5057420;28;20545;-72
2021/05/25 07:43:12;;;;;;;2.10;1.90;;;10.90;99.90;;;;;;5055496;28;20477;-72
2021/05/25 07:45:37;;;;;;;1.40;1.30;;;10.90;99.90;;;;;;5052398;28;20210;-72
2021/05/25 07:48:04;;;;;;;1.83;1.40;;;10.90;99.90;;;;;;5062380;28;20273;-71
2021/05/25 07:50:29;;;;;;;2.33;1.37;;;10.90;99.90;;;;;;5069853;28;20236;-71
2021/05/25 07:52:56;;;;;;;1.37;1.27;;;10.90;99.90;;;;;;5069383;28;20412;-71
2021/05/25 07:55:27;;;;;;;1.50;1.40;;;10.90;99.90;;;;;;5070032;28;20255;-72
2021/05/25 07:57:53;;;;;;;1.23;1.03;;;10.80;99.90;;;;;;5064543;28;20551;-72
2021/05/25 08:00:20;;;;;;;1.30;1.00;;;10.70;99.90;;;;;;5069795;28;20990;-72
2021/05/25 08:02:46;;;;;;;1.20;1.17;;;10.60;99.90;;;;;;5069616;28;20783;-72
2021/05/25 08:05:13;;;;;;;1.43;1.33;;;10.50;99.90;;;;;;5069627;28;20508;-72
2021/05/25 08:07:40;;;;;;;1.87;1.33;;;10.40;99.90;;;;;;5059781;28;20214;-72
2021/05/25 08:10:07;;;;;;;1.40;1.30;;;10.40;99.90;;;;;;5063704;28;20430;-72
2021/05/25 08:12:33;;;;;;;1.77;1.30;;;10.40;99.90;;;;;;5046681;28;20487;-72
2021/05/25 08:15:00;;;;;;;4.30;1.30;;;10.40;99.90;;;;;;5057954;28;20943;-73
2021/05/25 08:20:13;;;;;;;1.33;1.20;;;10.60;99.90;;;;;;5065898;28;20205;-72
2021/05/25 08:22:38;;;;;;;1.80;1.30;;;10.80;99.90;;;;;;5069933;28;20477;-73
2021/05/25 08:25:05;;;;;;;1.00;1.00;;;11.10;99.90;;;;;;5072838;28;20436;-73
2021/05/25 08:27:30;;;;;;;1.20;1.10;;;11.40;99.90;;;;;;5073824;28;20181;-73
2021/05/25 08:29:56;;;;;;;1.20;1.10;;;11.60;99.90;;;;;;5067932;28;20455;-73
2021/05/25 08:32:21;;;;;;;1.90;1.03;;;11.60;99.90;;;;;;5075360;28;20275;-73
2021/05/25 08:34:47;;;;;;;1.00;1.00;;;11.70;99.90;;;;;;5074755;28;20209;-73
2021/05/25 08:37:12;;;;;;;1.30;1.20;;;11.60;99.90;;;;;;5074949;28;20673;-73
2021/05/25 08:39:38;;;;;;;1.70;1.30;;;11.60;99.90;;;;;;5064665;28;20216;-73
2021/05/25 08:42:04;;;;;;;1.63;1.17;;;11.50;99.90;;;;;;5049634;28;20244;-73
2021/05/25 08:44:29;;;;;;;1.23;0.90;;;11.40;99.90;;;;;;5066948;28;20229;-72
2021/05/25 08:46:55;;;;;;;1.30;1.20;;;11.20;99.90;;;;;;5067234;28;20451;-72
2021/05/25 08:49:22;;;;;;;1.33;1.00;;;11.10;99.90;;;;;;5069825;28;20177;-73
2021/05/25 08:51:48;;;;;;;1.10;1.10;;;11.00;99.90;;;;;;5047390;28;20309;-72
2021/05/25 08:54:18;;;;;;;1.23;1.13;;;11.00;99.90;;;;;;5051703;28;20511;-73
2021/05/25 08:56:43;;;;;;;1.50;1.30;;;11.00;99.90;;;;;;5078435;28;20399;-71
2021/05/25 08:59:09;;;;;;;1.60;1.50;;;11.00;99.90;;;;;;5065420;28;20494;-72
2021/05/25 09:01:36;;;;;;;1.70;1.60;;;11.10;99.90;;;;;;5084455;28;20176;-72
2021/05/25 09:04:04;;;;;;;2.33;1.63;;;11.00;99.90;;;;;;5088384;28;20240;-72
2021/05/25 09:06:41;;;;;;;1.73;1.20;;;11.10;99.90;;;;;;5081694;28;20979;-74
2021/05/25 09:09:12;;;;;;;1.50;1.40;;;11.20;99.90;;;;;;5070923;28;20434;-74
2021/05/25 09:12:06;;;;;;;2.03;1.63;;;11.30;99.90;;;;;;5062848;28;20468;-72
2021/05/25 09:14:33;;;;;;;2.13;1.90;;;11.30;99.90;;;;;;5055066;28;20452;-72
2021/05/25 09:17:22;;;;;;;2.30;2.17;;;11.30;99.90;;;;;;5072429;28;20515;-72
2021/05/25 09:19:48;;;;;;;5.60;2.50;;;11.30;99.90;;;;;;5060717;28;21025;-73
2021/05/25 09:22:24;;;;;;;3.50;2.93;;;11.40;99.90;;;;;;5068326;28;20694;-71
2021/05/25 09:24:53;;;;;;;3.47;3.17;;;11.70;99.90;;;;;;5039417;28;20431;-72
2021/05/25 09:27:31;;;;;;;5.47;3.60;;;11.90;99.90;;;;;;5070560;28;20424;-73
2021/05/25 09:30:20;;;;;;;3.37;3.03;;;12.00;99.90;;;;;;5059083;28;20556;-73
2021/05/25 09:32:47;;;;;;;6.40;3.33;;;12.40;99.90;;;;;;5043605;28;20442;-72
2021/05/25 09:35:17;;;;;;;5.27;4.03;;;12.50;99.90;;;;;;5043685;28;20445;-73
2021/05/25 09:37:47;;;;;;;4.30;3.27;;;12.80;99.90;;;;;;5049624;28;20420;-72
2021/05/25 09:40:15;;;;;;;3.77;3.43;;;12.90;99.90;;;;;;5054944;28;20480;-72
2021/05/25 09:42:41;;;;;;;3.80;3.50;;;12.90;99.90;;;;;;5050240;28;20432;-73
2021/05/25 09:45:13;;;;;;;3.97;3.57;;;12.80;99.90;;;;;;5040545;28;20945;-72
2021/05/25 09:47:48;;;;;;;4.27;3.50;;;12.70;99.90;;;;;;5059107;28;20439;-72
2021/05/25 09:50:16;;;;;;;2.93;2.73;;;12.70;99.90;;;;;;5059454;28;20789;-73
2021/05/25 09:53:05;;;;;;;3.53;3.20;;;12.70;99.90;;;;;;5069765;28;20901;-73
2021/05/25 09:55:34;;;;;;;3.73;2.60;;;12.80;99.90;;;;;;5071330;28;20443;-72
2021/05/25 09:58:00;;;;;;;3.20;2.90;;;12.80;99.90;;;;;;5052302;28;20547;-74
2021/05/25 10:00:30;;;;;;;3.80;3.40;;;12.90;99.90;;;;;;5050817;28;21044;-73
2021/05/25 10:03:14;;;;;;;4.23;3.50;;;13.10;99.90;;;;;;5066118;28;20224;-74
2021/05/25 10:05:54;;;;;;;5.33;3.27;;;13.20;99.90;;;;;;5048295;28;20436;-73
2021/05/25 10:08:23;;;;;;;8.20;3.50;;;13.30;99.90;;;;;;5043268;28;20456;-72
2021/05/25 10:10:50;;;;;;;3.23;2.73;;;13.40;99.90;;;;;;5043124;28;20940;-72
2021/05/25 10:13:16;;;;;;;3.63;3.33;;;13.40;99.90;;;;;;5047313;28;20416;-73
2021/05/25 10:15:43;;;;;;;2.37;2.03;;;13.30;99.90;;;;;;5046303;28;20457;-73
2021/05/25 10:18:16;;;;;;;2.30;2.10;;;13.20;99.90;;;;;;5041686;28;20549;-73
2021/05/25 10:20:43;;;;;;;2.30;2.17;;;13.20;99.90;;;;;;5044831;28;20870;-73
2021/05/25 10:23:09;;;;;;;2.63;2.43;;;13.30;99.90;;;;;;5034428;28;20512;-73
2021/05/25 10:25:37;;;;;;;2.90;2.70;;;13.20;99.90;;;;;;5030195;28;20441;-73
2021/05/25 10:28:12;;;;;;;2.20;2.00;;;12.90;99.90;;;;;;5045931;28;20554;-73
2021/05/25 10:30:49;;;;;;;4.87;1.90;;;12.50;99.90;;;;;;5032298;28;20409;-73
2021/05/25 10:33:20;;;;;;;2.17;1.97;;;12.20;99.90;;;;;;5040866;28;20474;-73
2021/05/25 10:35:57;;;;;;;1.70;1.60;;;11.80;99.90;;;;;;5050345;28;20480;-73
2021/05/25 10:38:44;;;;;;;2.40;2.20;;;11.70;99.90;;;;;;5050773;28;20404;-73
2021/05/25 10:41:27;;;;;;;2.40;2.20;;;11.60;99.90;;;;;;5049246;28;20471;-73
2021/05/25 10:43:53;;;;;;;3.13;2.93;;;11.40;99.90;;;;;;5030022;28;20421;-73
2021/05/25 10:46:22;;;;;;;2.53;2.30;;;11.40;99.90;;;;;;5034107;28;20451;-73
2021/05/25 10:49:04;;;;;;;3.07;2.53;;;11.40;99.90;;;;;;5049610;28;20247;-73
2021/05/25 10:51:44;;;;;;;2.90;2.70;;;11.40;99.90;;;;;;5050329;28;20877;-72
2021/05/25 10:54:30;;;;;;;2.80;2.60;;;11.50;99.90;;;;;;5049485;28;20499;-73
2021/05/25 10:56:56;;;;;;;3.70;3.33;;;11.70;99.90;;;;;;5050729;28;20414;-73
2021/05/25 10:59:22;;;;;;;5.10;4.00;;;11.90;99.90;;;;;;5049480;28;20472;-72
2021/05/25 11:01:59;;;;;;;4.30;3.00;;;12.00;99.90;;;;;;5048244;28;20425;-73
2021/05/25 11:04:37;;;;;;;2.90;2.80;;;12.10;99.90;;;;;;5046993;28;20193;-73
2021/05/25 11:07:38;;;;;;;4.50;2.90;;;12.10;99.90;;;;;;5050145;28;20417;-73
2021/05/25 11:10:36;;;;;;;5.03;3.90;;;12.20;99.90;;;;;;5048649;28;21020;-72
2021/05/25 11:16:03;;;;;;;5.20;4.77;;;12.20;99.90;;;;;;5049725;28;20570;-73
2021/05/25 11:21:20;;;;;;;4.80;4.40;;;12.20;99.90;;;;;;5051268;28;20448;-73
2021/05/25 11:23:50;;;;;;;4.93;4.13;;;12.10;99.90;;;;;;5043038;28;20560;-74
2021/05/25 11:26:57;;;;;;;3.70;3.40;;;11.80;99.90;;;;;;5033796;28;20444;-73
2021/05/25 11:29:26;;;;;;;3.27;3.07;;;11.50;99.90;;;;;;5047578;28;20984;-71
2021/05/25 11:31:52;;;;;;;3.70;3.40;;;11.40;99.90;;;;;;5049824;28;20894;-72
2021/05/25 11:34:21;;;;;;;3.07;2.83;;;11.30;99.90;;;;;;5049469;28;20945;-74
2021/05/25 11:37:00;;;;;;;3.30;2.60;;;11.20;99.90;;;;;;5048696;28;20421;-72
2021/05/25 11:39:26;;;;;;;3.13;2.77;;;11.20;99.90;;;;;;5050451;28;20533;-72
2021/05/25 11:41:52;;;;;;;3.00;2.67;;;11.40;99.90;;;;;;5052222;28;20411;-73
2021/05/25 11:44:21;;;;;;;3.13;2.90;;;11.50;99.90;;;;;;5053804;28;20424;-72
2021/05/25 11:46:51;;;;;;;2.90;2.70;;;11.60;99.90;;;;;;5052202;28;20505;-73
2021/05/25 11:49:19;;;;;;;3.00;2.80;;;11.70;99.90;;;;;;5048001;28;20495;-72
2021/05/25 11:51:46;;;;;;;3.20;2.90;;;11.90;99.90;;;;;;5039264;28;20433;-72
2021/05/25 11:54:20;;;;;;;3.90;2.93;;;12.00;99.90;;;;;;5041770;28;20428;-72
2021/05/25 11:56:50;;;;;;;6.73;3.33;;;12.10;99.90;;;;;;5050241;28;20475;-72
2021/05/25 11:59:23;;;;;;;3.23;2.90;;;12.30;99.90;;;;;;5052030;28;20861;-72
2021/05/25 12:01:53;;;;;;;3.67;3.10;;;12.50;99.90;;;;;;5053673;28;20421;-72
2021/05/25 12:04:22;;;;;;;3.70;3.00;;;12.70;99.90;;;;;;5053344;28;20447;-72
2021/05/25 12:06:50;;;;;;;5.33;3.80;;;12.80;99.90;;;;;;5052957;28;20866;-72
2021/05/25 12:09:17;;;;;;;3.30;3.10;;;12.90;99.90;;;;;;5054296;28;20503;-72
2021/05/25 12:11:44;;;;;;;7.93;3.87;;;12.90;99.90;;;;;;5071456;28;20503;-71
2021/05/25 12:14:11;;;;;;;4.23;3.83;;;12.80;99.90;;;;;;5066239;28;20420;-73
2021/05/25 12:16:37;;;;;;;3.60;3.30;;;12.90;99.90;;;;;;5063855;28;20429;-72
2021/05/25 12:19:04;;;;;;;4.60;3.93;;;13.10;99.90;;;;;;5070230;28;20413;-73
2021/05/25 12:21:30;;;;;;;6.37;4.10;;;13.20;99.90;;;;;;5066675;28;20443;-71
2021/05/25 12:23:55;;;;;;;7.03;4.20;;;13.30;99.90;;;;;;5063914;28;20412;-72
2021/05/25 12:26:23;;;;;;;6.90;4.90;;;13.40;99.90;;;;;;5075490;28;20194;-72
2021/05/25 12:28:51;;;;;;;5.27;4.20;;;13.50;99.90;;;;;;5074365;28;20416;-73
2021/05/25 12:31:17;;;;;;;7.50;4.87;;;13.50;99.90;;;;;;5073345;28;20401;-73
2021/05/25 12:33:46;;;;;;;5.67;4.40;;;13.40;99.90;;;;;;5057384;28;20413;-71
2021/05/25 12:36:39;;;;;;;4.87;4.47;;;13.50;99.90;;;;;;5052834;28;20454;-72
2021/05/25 12:39:07;;;;;;;5.60;5.10;;;13.60;99.90;;;;;;5052723;28;20428;-72
2021/05/25 12:41:54;;;;;;;3.83;3.47;;;13.60;99.90;;;;;;5052896;28;20397;-72
2021/05/25 12:44:27;;;;;;;3.10;2.40;;;13.40;99.90;;;;;;5051300;28;20401;-72
2021/05/25 12:46:54;;;;;;;4.87;2.60;;;12.80;99.90;;;;;;5054223;28;20427;-70
2021/05/25 12:49:40;;;;;;;2.20;2.10;;;12.40;99.90;;;;;;5052357;28;20519;-71
2021/05/25 12:52:18;;;;;;;3.80;2.00;;;12.30;99.90;;;;;;5051563;28;20490;-71
2021/05/25 12:54:51;;;;;;;3.53;2.10;;;12.10;99.90;;;;;;5051686;28;20432;-72
2021/05/25 12:57:17;;;;;;;3.03;1.90;;;12.10;99.90;;;;;;5051749;28;20435;-72
2021/05/25 12:59:42;;;;;;;3.53;2.10;;;12.10;99.90;;;;;;5050239;28;20831;-71
2021/05/25 13:02:08;;;;;;;2.10;1.90;;;11.90;99.90;;;;;;5052074;28;20632;-72